createdAt,value
2023-05-05T00:00:29.406Z,16.5318
2023-05-05T00:01:32.070Z,16.4173
2023-05-05T00:02:34.661Z,16.3443
2023-05-05T00:03:37.267Z,16.3155
2023-05-05T00:04:37.197Z,16.3419
2023-05-05T00:05:39.914Z,16.3284
2023-05-05T00:06:42.566Z,16.3546
2023-05-05T00:07:45.092Z,16.3741
2023-05-05T00:08:47.599Z,16.4338
2023-05-05T00:09:50.134Z,16.3589
2023-05-05T00:10:52.774Z,15.8484
2023-05-05T00:11:55.367Z,15.8335
2023-05-05T00:12:57.901Z,15.8341
2023-05-05T00:14:00.396Z,15.8137
2023-05-05T00:15:02.875Z,15.7807
2023-05-05T00:16:05.367Z,15.8136
2023-05-05T00:17:07.878Z,15.7590
2023-05-05T00:18:10.375Z,15.7541
2023-05-05T00:19:12.879Z,15.7298
2023-05-05T00:20:15.449Z,15.7544
2023-05-05T00:21:17.944Z,15.7525
2023-05-05T00:22:20.538Z,15.7548
2023-05-05T00:23:23.217Z,15.8112
2023-05-05T00:24:25.745Z,15.8420
2023-05-05T00:25:28.290Z,15.8613
2023-05-05T00:26:30.838Z,15.8835
2023-05-05T00:27:33.332Z,15.8127
2023-05-05T00:28:35.839Z,15.7699
2023-05-05T00:29:38.368Z,15.7783
2023-05-05T00:30:40.933Z,15.8033
2023-05-05T00:31:43.524Z,15.8076
2023-05-05T00:32:46.120Z,15.7922
2023-05-05T00:33:48.612Z,15.7892
2023-05-05T00:34:51.130Z,15.7795
2023-05-05T00:35:53.638Z,15.7483
2023-05-05T00:36:56.132Z,15.7326
2023-05-05T00:37:58.709Z,15.7530
2023-05-05T00:39:01.246Z,15.7577
2023-05-05T00:40:03.913Z,15.8163
2023-05-05T00:41:06.388Z,15.8092
2023-05-05T00:42:08.967Z,15.8358
2023-05-05T00:43:11.511Z,15.8243
2023-05-05T00:44:14.082Z,15.8182
2023-05-05T00:45:16.655Z,15.8247
2023-05-05T00:46:19.589Z,15.7127
2023-05-05T00:47:19.269Z,15.7249
2023-05-05T00:48:21.740Z,15.7459
2023-05-05T00:49:24.278Z,15.7710
2023-05-05T00:50:26.762Z,15.7313
2023-05-05T00:51:29.316Z,15.6855
2023-05-05T00:52:31.813Z,15.6490
2023-05-05T00:53:34.383Z,15.6638
2023-05-05T00:54:36.956Z,15.6901
2023-05-05T00:55:39.577Z,15.7602
2023-05-05T00:56:42.075Z,15.7105
2023-05-05T00:57:44.628Z,15.6570
2023-05-05T00:58:47.245Z,15.6446
2023-05-05T00:59:47.332Z,15.6594
2023-05-05T01:00:49.860Z,15.6161
2023-05-05T01:01:52.498Z,15.5582
2023-05-05T01:02:55.237Z,15.5480
2023-05-05T01:03:55.331Z,15.5708
2023-05-05T01:04:57.841Z,15.5858
2023-05-05T01:06:00.425Z,15.6279
2023-05-05T01:07:03.003Z,15.6182
2023-05-05T01:08:05.611Z,15.6004
2023-05-05T01:09:08.236Z,15.5804
2023-05-05T01:10:19.559Z,15.4754
2023-05-05T01:11:10.871Z,15.5376
2023-05-05T01:12:13.512Z,15.6042
2023-05-05T01:13:16.114Z,15.6918
2023-05-05T01:14:18.686Z,15.8064
2023-05-05T01:15:21.229Z,15.8456
2023-05-05T01:16:23.850Z,15.8608
2023-05-05T01:17:23.768Z,15.8623
2023-05-05T01:18:26.315Z,15.7287
2023-05-05T01:19:28.920Z,15.6166
2023-05-05T01:20:31.499Z,15.5064
2023-05-05T01:21:34.070Z,15.4090
2023-05-05T01:22:36.631Z,15.2875
2023-05-05T01:23:39.236Z,15.1664
2023-05-05T01:24:41.803Z,15.1062
2023-05-05T01:25:44.349Z,15.1032
2023-05-05T01:26:46.942Z,15.1151
2023-05-05T01:27:49.514Z,15.1778
2023-05-05T01:28:52.100Z,15.1783
2023-05-05T01:29:54.689Z,15.1577
2023-05-05T01:30:57.315Z,15.1004
2023-05-05T01:31:59.886Z,15.0271
2023-05-05T01:33:02.508Z,15.0114
2023-05-05T01:34:05.093Z,15.0380
2023-05-05T01:35:07.696Z,15.0623
2023-05-05T01:36:10.196Z,15.0398
2023-05-05T01:37:12.806Z,15.0453
2023-05-05T01:38:15.382Z,15.0505
2023-05-05T01:39:18.029Z,15.0591
2023-05-05T01:40:20.606Z,15.0741
2023-05-05T01:41:23.239Z,15.0836
2023-05-05T01:42:25.865Z,15.0739
2023-05-05T01:43:28.446Z,15.1025
2023-05-05T01:44:31.069Z,15.1235
2023-05-05T01:45:33.778Z,15.0951
2023-05-05T01:46:36.395Z,15.0664
2023-05-05T01:47:39.033Z,15.1243
2023-05-05T01:48:42.370Z,15.0842
2023-05-05T01:49:42.287Z,15.0732
2023-05-05T01:50:44.910Z,15.0572
2023-05-05T01:51:47.495Z,15.0490
2023-05-05T01:52:50.066Z,15.0536
2023-05-05T01:53:52.668Z,15.0636
2023-05-05T01:54:55.222Z,15.0548
2023-05-05T01:55:57.823Z,15.0563
2023-05-05T01:57:00.340Z,15.0615
2023-05-05T01:58:02.963Z,15.0354
2023-05-05T01:59:05.507Z,14.9775
2023-05-05T02:00:08.280Z,14.9863
2023-05-05T02:01:08.307Z,15.0014
2023-05-05T02:02:10.992Z,15.0141
2023-05-05T02:03:13.706Z,14.9122
2023-05-05T02:04:16.378Z,14.8285
2023-05-05T02:05:18.954Z,14.7236
2023-05-05T02:06:21.603Z,14.6804
2023-05-05T02:07:24.200Z,14.6548
2023-05-05T02:08:26.827Z,14.6138
2023-05-05T02:09:29.428Z,14.6587
2023-05-05T02:10:32.079Z,14.6842
2023-05-05T02:11:34.701Z,14.7086
2023-05-05T02:12:37.377Z,14.7951
2023-05-05T02:13:40.049Z,14.9681
2023-05-05T02:14:42.618Z,15.0127
2023-05-05T02:15:45.297Z,15.0698
2023-05-05T02:16:47.877Z,15.1461
2023-05-05T02:17:50.488Z,15.2450
2023-05-05T02:18:53.105Z,15.3861
2023-05-05T02:19:55.737Z,15.4402
2023-05-05T02:20:58.307Z,15.5455
2023-05-05T02:22:00.893Z,15.6006
2023-05-05T02:23:03.465Z,15.5639
2023-05-05T02:24:06.079Z,15.0677
2023-05-05T02:25:08.719Z,14.9781
2023-05-05T02:26:11.332Z,14.9319
2023-05-05T02:27:13.933Z,14.9705
2023-05-05T02:28:16.521Z,15.0473
2023-05-05T02:29:19.215Z,14.9851
2023-05-05T02:30:22.041Z,14.9234
2023-05-05T02:31:22.100Z,14.8079
2023-05-05T02:32:22.133Z,14.7358
2023-05-05T02:33:22.139Z,14.7762
2023-05-05T02:34:24.726Z,14.7346
2023-05-05T02:35:27.435Z,14.6828
2023-05-05T02:36:29.972Z,14.6278
2023-05-05T02:37:32.562Z,14.5707
2023-05-05T02:38:35.138Z,14.5466
2023-05-05T02:39:37.695Z,14.5091
2023-05-05T02:40:40.350Z,14.5082
2023-05-05T02:41:42.975Z,14.4472
2023-05-05T02:42:45.606Z,14.4123
2023-05-05T02:43:48.225Z,14.4431
2023-05-05T02:44:50.815Z,14.4118
2023-05-05T02:45:53.417Z,14.3614
2023-05-05T02:46:56.061Z,14.3820
2023-05-05T02:47:58.688Z,14.4222
2023-05-05T02:49:01.261Z,14.4203
2023-05-05T02:50:03.915Z,14.4279
2023-05-05T02:51:06.550Z,14.4046
2023-05-05T02:52:09.137Z,14.3952
2023-05-05T02:53:11.764Z,14.4379
2023-05-05T02:54:14.389Z,14.4138
2023-05-05T02:55:17.084Z,14.3970
2023-05-05T02:56:19.714Z,14.3778
2023-05-05T02:57:22.402Z,14.3737
2023-05-05T02:58:25.103Z,14.3757
2023-05-05T02:59:27.745Z,14.3438
2023-05-05T03:00:30.292Z,14.3516
2023-05-05T03:01:32.977Z,14.3796
2023-05-05T03:02:35.710Z,14.4182
2023-05-05T03:03:35.546Z,14.4583
2023-05-05T03:04:38.098Z,14.5618
2023-05-05T03:05:40.732Z,14.5898
2023-05-05T03:06:43.294Z,14.5796
2023-05-05T03:07:45.819Z,14.5670
2023-05-05T03:08:48.391Z,14.5633
2023-05-05T03:09:51.065Z,14.5151
2023-05-05T03:10:53.622Z,14.5060
2023-05-05T03:11:56.337Z,14.5770
2023-05-05T03:12:58.940Z,14.5050
2023-05-05T03:14:01.558Z,14.4885
2023-05-05T03:15:04.151Z,14.5517
2023-05-05T03:16:06.895Z,14.5891
2023-05-05T03:17:09.486Z,14.6724
2023-05-05T03:18:09.481Z,14.6919
2023-05-05T03:19:12.254Z,14.7145
2023-05-05T03:20:15.030Z,14.6656
2023-05-05T03:21:17.655Z,14.6530
2023-05-05T03:22:20.256Z,14.5675
2023-05-05T03:23:22.950Z,14.5571
2023-05-05T03:24:25.594Z,14.5502
2023-05-05T03:25:28.219Z,14.5107
2023-05-05T03:26:30.828Z,14.4614
2023-05-05T03:27:33.438Z,14.4681
2023-05-05T03:28:35.991Z,14.4943
2023-05-05T03:29:38.592Z,14.5756
2023-05-05T03:30:41.198Z,14.5739
2023-05-05T03:31:43.886Z,14.6426
2023-05-05T03:32:46.505Z,14.7087
2023-05-05T03:33:49.041Z,14.7497
2023-05-05T03:34:51.603Z,14.7844
2023-05-05T03:35:54.165Z,14.8106
2023-05-05T03:36:56.744Z,14.8849
2023-05-05T03:37:59.273Z,14.8921
2023-05-05T03:39:01.777Z,14.8657
2023-05-05T03:40:04.347Z,14.8683
2023-05-05T03:41:06.921Z,14.8751
2023-05-05T03:42:09.533Z,14.8802
2023-05-05T03:43:12.065Z,14.8907
2023-05-05T03:44:14.675Z,14.8586
2023-05-05T03:45:17.259Z,14.8889
2023-05-05T03:46:19.886Z,14.9109
2023-05-05T03:47:22.474Z,14.9145
2023-05-05T03:48:25.061Z,14.9339
2023-05-05T03:49:27.634Z,14.9608
2023-05-05T03:50:30.216Z,14.9681
2023-05-05T03:51:32.789Z,14.9878
2023-05-05T03:52:35.372Z,15.0146
2023-05-05T03:53:38.025Z,15.0402
2023-05-05T03:54:40.608Z,15.1049
2023-05-05T03:55:43.246Z,15.1666
2023-05-05T03:56:45.816Z,15.1910
2023-05-05T03:57:48.457Z,15.2139
2023-05-05T03:58:51.056Z,15.1921
2023-05-05T03:59:53.610Z,15.1385
2023-05-05T04:00:56.208Z,15.1009
2023-05-05T04:01:58.829Z,15.0602
2023-05-05T04:03:01.523Z,15.0086
2023-05-05T04:04:04.208Z,14.9753
2023-05-05T04:05:06.760Z,14.9529
2023-05-05T04:06:09.338Z,14.9055
2023-05-05T04:07:11.917Z,14.8513
2023-05-05T04:08:14.491Z,14.8429
2023-05-05T04:09:17.035Z,14.8351
2023-05-05T04:10:19.660Z,14.8490
2023-05-05T04:11:22.264Z,14.8682
2023-05-05T04:12:24.886Z,14.8873
2023-05-05T04:13:27.429Z,14.9130
2023-05-05T04:14:29.991Z,14.9123
2023-05-05T04:15:32.555Z,14.8514
2023-05-05T04:16:35.127Z,14.8082
2023-05-05T04:17:37.813Z,14.7777
2023-05-05T04:18:40.407Z,14.7913
2023-05-05T04:19:43.020Z,14.6959
2023-05-05T04:20:45.594Z,14.5806
2023-05-05T04:21:48.190Z,14.5771
2023-05-05T04:22:52.597Z,14.5486
2023-05-05T04:23:52.718Z,14.5118
2023-05-05T04:24:55.334Z,14.5531
2023-05-05T04:25:57.900Z,14.5492
2023-05-05T04:27:00.495Z,14.5815
2023-05-05T04:28:03.117Z,14.6396
2023-05-05T04:29:05.676Z,14.6861
2023-05-05T04:30:08.520Z,14.6525
2023-05-05T04:31:08.458Z,14.6473
2023-05-05T04:32:11.134Z,14.6719
2023-05-05T04:33:13.761Z,14.6734
2023-05-05T04:34:16.394Z,14.7211
2023-05-05T04:35:18.962Z,14.7519
2023-05-05T04:36:18.994Z,14.7818
2023-05-05T04:37:19.268Z,14.8105
2023-05-05T04:38:21.879Z,14.8313
2023-05-05T04:39:24.437Z,14.8280
2023-05-05T04:40:26.971Z,14.8513
2023-05-05T04:41:30.153Z,14.7770
2023-05-05T04:42:30.057Z,14.7347
2023-05-05T04:43:32.735Z,14.7203
2023-05-05T04:44:35.319Z,14.7263
2023-05-05T04:45:37.866Z,14.7087
2023-05-05T04:46:40.504Z,14.7433
2023-05-05T04:47:43.090Z,14.7291
2023-05-05T04:48:45.626Z,14.7162
2023-05-05T04:49:48.217Z,14.6775
2023-05-05T04:50:50.785Z,14.6377
2023-05-05T04:51:53.511Z,14.6542
2023-05-05T04:52:56.095Z,14.6369
2023-05-05T04:53:58.669Z,14.6554
2023-05-05T04:55:01.266Z,14.6588
2023-05-05T04:56:03.867Z,14.6252
2023-05-05T04:57:06.437Z,14.6148
2023-05-05T04:58:09.070Z,14.5955
2023-05-05T04:59:11.676Z,14.5945
2023-05-05T05:00:14.271Z,14.6227
2023-05-05T05:01:16.849Z,14.6514
2023-05-05T05:02:19.597Z,14.6416
2023-05-05T05:03:19.552Z,14.6301
2023-05-05T05:04:19.508Z,14.6176
2023-05-05T05:05:22.281Z,14.6850
2023-05-05T05:06:24.908Z,14.7804
2023-05-05T05:07:27.488Z,14.8474
2023-05-05T05:08:30.076Z,14.8779
2023-05-05T05:09:32.706Z,14.8023
2023-05-05T05:10:35.433Z,14.7202
2023-05-05T05:11:37.990Z,14.6403
2023-05-05T05:12:40.635Z,14.5089
2023-05-05T05:13:43.169Z,14.4324
2023-05-05T05:14:45.746Z,14.4080
2023-05-05T05:15:48.301Z,14.3750
2023-05-05T05:16:50.924Z,14.3343
2023-05-05T05:17:53.601Z,14.2933
2023-05-05T05:18:56.211Z,14.2071
2023-05-05T05:19:58.801Z,14.1662
2023-05-05T05:21:01.435Z,14.1594
2023-05-05T05:22:04.012Z,14.1744
2023-05-05T05:23:06.720Z,14.1778
2023-05-05T05:24:09.260Z,14.1258
2023-05-05T05:25:11.853Z,14.1506
2023-05-05T05:26:14.402Z,14.1741
2023-05-05T05:27:17.019Z,14.1685
2023-05-05T05:28:19.640Z,14.1836
2023-05-05T05:29:22.236Z,14.2417
2023-05-05T05:30:24.802Z,14.2711
2023-05-05T05:31:27.372Z,14.3018
2023-05-05T05:32:30.019Z,14.3291
2023-05-05T05:33:32.657Z,14.3659
2023-05-05T05:34:35.474Z,14.3945
2023-05-05T05:35:35.279Z,14.3707
2023-05-05T05:36:37.878Z,14.3988
2023-05-05T05:37:40.496Z,14.4236
2023-05-05T05:38:43.177Z,14.4521
2023-05-05T05:39:45.793Z,14.4331
2023-05-05T05:40:48.379Z,14.4568
2023-05-05T05:41:51.043Z,14.4421
2023-05-05T05:42:53.686Z,14.4783
2023-05-05T05:43:56.320Z,14.5137
2023-05-05T05:44:59.120Z,14.5384
2023-05-05T05:45:58.889Z,14.5085
2023-05-05T05:47:01.501Z,14.5395
2023-05-05T05:48:04.101Z,14.5830
2023-05-05T05:49:06.681Z,14.5932
2023-05-05T05:50:09.478Z,14.6192
2023-05-05T05:51:09.413Z,14.6529
2023-05-05T05:52:11.992Z,14.6895
2023-05-05T05:53:14.574Z,14.7314
2023-05-05T05:54:17.170Z,14.8035
2023-05-05T05:55:19.728Z,14.8418
2023-05-05T05:56:22.275Z,14.8975
2023-05-05T05:57:24.899Z,14.9651
2023-05-05T05:58:27.528Z,15.0171
2023-05-05T05:59:30.185Z,15.0637
2023-05-05T06:00:32.944Z,15.1115
2023-05-05T06:01:32.920Z,15.1453
2023-05-05T06:02:35.626Z,15.1987
2023-05-05T06:03:38.441Z,15.2640
2023-05-05T06:04:38.329Z,15.2898
2023-05-05T06:05:40.965Z,15.3091
2023-05-05T06:06:43.623Z,15.3697
2023-05-05T06:07:46.280Z,15.4261
2023-05-05T06:08:48.959Z,15.4583
2023-05-05T06:09:51.591Z,15.4683
2023-05-05T06:10:54.280Z,15.4469
2023-05-05T06:11:56.981Z,15.5058
2023-05-05T06:12:59.693Z,15.5591
2023-05-05T06:13:59.604Z,15.5418
2023-05-05T06:15:02.266Z,15.4804
2023-05-05T06:16:05.007Z,15.4802
2023-05-05T06:17:07.575Z,15.5542
2023-05-05T06:18:10.414Z,15.6309
2023-05-05T06:19:10.455Z,15.6493
2023-05-05T06:20:13.047Z,15.7442
2023-05-05T06:21:15.687Z,15.7942
2023-05-05T06:22:18.467Z,15.8828
2023-05-05T06:23:18.295Z,15.8625
2023-05-05T06:24:21.075Z,16.0049
2023-05-05T06:25:20.919Z,16.0909
2023-05-05T06:26:23.554Z,16.1548
2023-05-05T06:27:26.154Z,16.2436
2023-05-05T06:28:28.788Z,16.3037
2023-05-05T06:29:31.388Z,16.3844
2023-05-05T06:30:33.995Z,16.4340
2023-05-05T06:31:36.691Z,16.5398
2023-05-05T06:32:39.451Z,16.5374
2023-05-05T06:33:42.101Z,16.6245
2023-05-05T06:34:44.723Z,16.6485
2023-05-05T06:35:47.354Z,16.6030
2023-05-05T06:36:50.151Z,16.6523
2023-05-05T06:37:52.779Z,16.9275
2023-05-05T06:38:55.445Z,17.1617
2023-05-05T06:39:58.075Z,17.2702
2023-05-05T06:41:00.737Z,17.0414
2023-05-05T06:42:03.428Z,17.1162
2023-05-05T06:43:06.083Z,17.3056
2023-05-05T06:44:08.718Z,17.4153
2023-05-05T06:45:11.358Z,17.3181
2023-05-05T06:46:11.386Z,17.3318
2023-05-05T06:47:11.361Z,17.4084
2023-05-05T06:48:11.327Z,17.2155
2023-05-05T06:49:13.990Z,17.2509
2023-05-05T06:50:16.593Z,17.2819
2023-05-05T06:51:19.200Z,17.1973
2023-05-05T06:52:21.991Z,17.2961
2023-05-05T06:53:21.800Z,17.3877
2023-05-05T06:54:24.357Z,17.4875
2023-05-05T06:55:27.013Z,17.5291
2023-05-05T06:56:29.634Z,17.4543
2023-05-05T06:57:32.244Z,17.6167
2023-05-05T06:58:34.874Z,17.6767
2023-05-05T06:59:37.465Z,17.4955
2023-05-05T07:00:40.070Z,17.6248
2023-05-05T07:01:42.667Z,17.7964
2023-05-05T07:02:45.340Z,17.8313
2023-05-05T07:03:48.032Z,17.5809
2023-05-05T07:04:47.988Z,17.5317
2023-05-05T07:05:50.622Z,17.6338
2023-05-05T07:06:53.272Z,17.6244
2023-05-05T07:07:55.850Z,17.7513
2023-05-05T07:08:58.452Z,17.6686
2023-05-05T07:10:01.087Z,17.7295
2023-05-05T07:11:03.790Z,17.8059
2023-05-05T07:12:06.416Z,17.8381
2023-05-05T07:13:09.079Z,17.8476
2023-05-05T07:14:09.077Z,17.9520
2023-05-05T07:15:26.052Z,17.8127
2023-05-05T07:16:11.917Z,17.5044
2023-05-05T07:17:14.532Z,17.4381
2023-05-05T07:18:17.165Z,17.5035
2023-05-05T07:19:19.820Z,17.5023
2023-05-05T07:20:22.415Z,17.5046
2023-05-05T07:21:25.082Z,17.4848
2023-05-05T07:22:27.659Z,17.4544
2023-05-05T07:23:30.239Z,17.5211
2023-05-05T07:24:32.866Z,17.5756
2023-05-05T07:25:35.486Z,17.6056
2023-05-05T07:26:38.232Z,17.7156
2023-05-05T07:27:40.777Z,17.6608
2023-05-05T07:28:43.385Z,17.6175
2023-05-05T07:29:46.015Z,17.5940
2023-05-05T07:30:48.622Z,17.6872
2023-05-05T07:31:51.393Z,17.7157
2023-05-05T07:32:51.356Z,17.8126
2023-05-05T07:33:51.264Z,17.8529
2023-05-05T07:34:53.850Z,17.9121
2023-05-05T07:35:56.456Z,17.9529
2023-05-05T07:36:59.112Z,17.8566
2023-05-05T07:38:01.686Z,17.8208
2023-05-05T07:39:04.317Z,17.5932
2023-05-05T07:40:07.169Z,17.6374
2023-05-05T07:41:07.186Z,17.6337
2023-05-05T07:42:09.819Z,17.6820
2023-05-05T07:43:12.464Z,17.8530
2023-05-05T07:44:15.041Z,17.8648
2023-05-05T07:45:17.659Z,17.9148
2023-05-05T07:46:20.336Z,17.9163
2023-05-05T07:47:20.225Z,17.8559
2023-05-05T07:48:22.779Z,17.8577
2023-05-05T07:49:25.405Z,17.9706
2023-05-05T07:50:28.040Z,17.9151
2023-05-05T07:51:32.023Z,17.9546
2023-05-05T07:52:45.365Z,17.9789
2023-05-05T07:53:33.119Z,17.8199
2023-05-05T07:54:35.818Z,17.8495
2023-05-05T07:55:38.349Z,17.6855
2023-05-05T07:56:40.999Z,17.6871
2023-05-05T07:57:43.726Z,17.7360
2023-05-05T07:58:46.325Z,17.8202
2023-05-05T07:59:48.977Z,17.8446
2023-05-05T08:00:51.606Z,17.9055
2023-05-05T08:01:55.037Z,17.8907
2023-05-05T08:02:55.016Z,17.8237
2023-05-05T08:03:57.626Z,17.9755
2023-05-05T08:05:00.241Z,18.0452
2023-05-05T08:06:02.804Z,18.1408
2023-05-05T08:07:05.376Z,18.1955
2023-05-05T08:08:08.141Z,18.1536
2023-05-05T08:09:10.685Z,18.1057
2023-05-05T08:10:13.308Z,18.0974
2023-05-05T08:11:15.935Z,18.0995
2023-05-05T08:12:18.494Z,17.9965
2023-05-05T08:13:21.175Z,18.1038
2023-05-05T08:14:23.770Z,18.0479
2023-05-05T08:15:26.372Z,18.1205
2023-05-05T08:16:28.996Z,18.1365
2023-05-05T08:17:31.571Z,18.1070
2023-05-05T08:18:34.240Z,18.1813
2023-05-05T08:19:36.763Z,18.2204
2023-05-05T08:20:39.373Z,18.1682
2023-05-05T08:21:41.973Z,18.2478
2023-05-05T08:22:44.642Z,18.3586
2023-05-05T08:23:47.298Z,18.4651
2023-05-05T08:24:49.903Z,18.5714
2023-05-05T08:25:52.509Z,18.6235
2023-05-05T08:26:55.126Z,18.6652
2023-05-05T08:27:55.402Z,18.6936
2023-05-05T08:28:58.064Z,18.7176
2023-05-05T08:30:00.600Z,18.7658
2023-05-05T08:31:03.237Z,18.8239
2023-05-05T08:32:05.801Z,18.8701
2023-05-05T08:33:08.467Z,18.8981
2023-05-05T08:34:11.073Z,18.9021
2023-05-05T08:35:13.859Z,19.0214
2023-05-05T08:36:13.970Z,18.8230
2023-05-05T08:37:16.629Z,18.8805
2023-05-05T08:38:19.189Z,18.7454
2023-05-05T08:39:21.767Z,18.8580
2023-05-05T08:40:24.290Z,19.1470
2023-05-05T08:41:26.915Z,19.1821
2023-05-05T08:42:37.253Z,19.0307
2023-05-05T08:43:29.540Z,18.9894
2023-05-05T08:44:32.122Z,19.2402
2023-05-05T08:45:34.718Z,19.3111
2023-05-05T08:46:37.353Z,19.3750
2023-05-05T08:47:39.966Z,19.2586
2023-05-05T08:48:42.589Z,19.3507
2023-05-05T08:49:45.312Z,19.3955
2023-05-05T08:50:47.855Z,19.3622
2023-05-05T08:51:50.447Z,19.3566
2023-05-05T08:52:51.383Z,19.6001
2023-05-05T08:53:51.306Z,19.6687
2023-05-05T08:54:53.887Z,19.6075
2023-05-05T08:55:56.515Z,19.8123
2023-05-05T08:56:59.065Z,19.7328
2023-05-05T08:58:01.673Z,19.6864
2023-05-05T08:59:04.323Z,19.7178
2023-05-05T09:00:06.878Z,19.8340
2023-05-05T09:01:09.479Z,19.9367
2023-05-05T09:02:12.058Z,19.8845
2023-05-05T09:03:14.728Z,19.8866
2023-05-05T09:04:14.661Z,19.9171
2023-05-05T09:05:17.202Z,19.9797
2023-05-05T09:06:19.739Z,19.5585
2023-05-05T09:07:22.322Z,19.6863
2023-05-05T09:08:24.887Z,19.7562
2023-05-05T09:09:27.390Z,19.7330
2023-05-05T09:10:29.990Z,19.5929
2023-05-05T09:11:32.577Z,19.6005
2023-05-05T09:12:35.138Z,19.8839
2023-05-05T09:13:37.647Z,19.9210
2023-05-05T09:14:40.192Z,19.5353
2023-05-05T09:15:42.720Z,19.3293
2023-05-05T09:16:45.297Z,19.7733
2023-05-05T09:17:47.893Z,20.0857
2023-05-05T09:18:50.485Z,20.1419
2023-05-05T09:19:53.026Z,20.0684
2023-05-05T09:20:56.878Z,19.9419
2023-05-05T09:21:55.759Z,19.9124
2023-05-05T09:22:58.296Z,19.9713
2023-05-05T09:24:07.433Z,20.0164
2023-05-05T09:25:00.913Z,20.0003
2023-05-05T09:26:03.505Z,19.5478
2023-05-05T09:27:06.030Z,19.7066
2023-05-05T09:28:08.656Z,19.8976
2023-05-05T09:29:11.190Z,20.1355
2023-05-05T09:30:13.776Z,20.1841
2023-05-05T09:31:16.517Z,20.1534
2023-05-05T09:32:16.403Z,20.2735
2023-05-05T09:33:19.026Z,20.2239
2023-05-05T09:34:21.547Z,19.9732
2023-05-05T09:35:24.095Z,20.0684
2023-05-05T09:36:24.034Z,19.9879
2023-05-05T09:37:26.622Z,20.0206
2023-05-05T09:38:29.168Z,19.8495
2023-05-05T09:39:31.799Z,19.8151
2023-05-05T09:40:34.407Z,19.7421
2023-05-05T09:41:36.944Z,19.7395
2023-05-05T09:42:39.460Z,19.7964
2023-05-05T09:43:40.292Z,20.1024
2023-05-05T09:44:42.832Z,20.3235
2023-05-05T09:45:45.409Z,20.3604
2023-05-05T09:46:48.044Z,20.3947
2023-05-05T09:47:47.913Z,20.4242
2023-05-05T09:48:47.841Z,20.4643
2023-05-05T09:49:50.354Z,20.6725
2023-05-05T09:50:52.923Z,20.6698
2023-05-05T09:51:55.534Z,20.7683
2023-05-05T09:52:58.076Z,20.7878
2023-05-05T09:54:00.664Z,20.6746
2023-05-05T09:55:03.236Z,20.6523
2023-05-05T09:56:05.902Z,20.7192
2023-05-05T09:57:08.527Z,20.7558
2023-05-05T09:58:11.128Z,20.8673
2023-05-05T09:59:13.672Z,20.7450
2023-05-05T10:00:16.230Z,20.8648
2023-05-05T10:01:18.855Z,21.0903
2023-05-05T10:02:21.404Z,21.0450
2023-05-05T10:03:23.953Z,20.8447
2023-05-05T10:04:26.528Z,20.8215
2023-05-05T10:05:29.109Z,20.6033
2023-05-05T10:06:31.733Z,20.9997
2023-05-05T10:07:34.264Z,21.1122
2023-05-05T10:08:36.777Z,21.3253
2023-05-05T10:09:39.258Z,21.3057
2023-05-05T10:10:41.882Z,21.2994
2023-05-05T10:11:44.405Z,21.2853
2023-05-05T10:12:46.955Z,21.5142
2023-05-05T10:13:49.497Z,21.4742
2023-05-05T10:14:52.010Z,21.5112
2023-05-05T10:15:54.583Z,21.3835
2023-05-05T10:16:57.103Z,21.2282
2023-05-05T10:18:06.720Z,21.0869
2023-05-05T10:18:59.611Z,21.2270
2023-05-05T10:20:02.157Z,21.2977
2023-05-05T10:21:04.737Z,21.6428
2023-05-05T10:22:07.283Z,21.7105
2023-05-05T10:23:09.833Z,21.6865
2023-05-05T10:24:12.418Z,21.6548
2023-05-05T10:25:14.929Z,21.7014
2023-05-05T10:26:17.458Z,21.8273
2023-05-05T10:27:19.997Z,21.7108
2023-05-05T10:28:22.568Z,21.8963
2023-05-05T10:29:25.094Z,22.0597
2023-05-05T10:30:27.623Z,21.9885
2023-05-05T10:31:30.323Z,22.2315
2023-05-05T10:32:51.150Z,21.9859
2023-05-05T10:33:32.906Z,21.9101
2023-05-05T10:34:35.540Z,22.2917
2023-05-05T10:35:38.081Z,21.9337
2023-05-05T10:36:40.602Z,21.8401
2023-05-05T10:37:43.137Z,22.0959
2023-05-05T10:38:45.690Z,22.0903
2023-05-05T10:39:48.236Z,22.1833
2023-05-05T10:40:50.756Z,21.9139
2023-05-05T10:41:53.321Z,21.8064
2023-05-05T10:42:55.832Z,21.8195
2023-05-05T10:43:58.358Z,21.6237
2023-05-05T10:45:00.946Z,21.3852
2023-05-05T10:46:00.907Z,21.3199
2023-05-05T10:47:00.990Z,21.3912
2023-05-05T10:48:03.638Z,21.5947
2023-05-05T10:49:03.443Z,21.3338
2023-05-05T10:50:06.135Z,21.5247
2023-05-05T10:51:05.978Z,21.6253
2023-05-05T10:52:08.647Z,21.6162
2023-05-05T10:53:08.485Z,21.6218
2023-05-05T10:54:11.072Z,21.1928
2023-05-05T10:55:13.664Z,21.4477
2023-05-05T10:56:16.184Z,21.5976
2023-05-05T10:57:18.802Z,21.5908
2023-05-05T10:58:21.368Z,21.3878
2023-05-05T10:59:23.923Z,21.2526
2023-05-05T11:00:26.479Z,21.3612
2023-05-05T11:01:29.205Z,21.4997
2023-05-05T11:02:29.159Z,21.6309
2023-05-05T11:03:29.056Z,21.8732
2023-05-05T11:04:31.727Z,21.9370
2023-05-05T11:05:34.292Z,21.6292
2023-05-05T11:06:36.880Z,21.5318
2023-05-05T11:07:39.480Z,21.8489
2023-05-05T11:08:42.032Z,22.0743
2023-05-05T11:09:44.637Z,22.7176
2023-05-05T11:10:47.205Z,22.8421
2023-05-05T11:11:49.754Z,22.6349
2023-05-05T11:12:52.498Z,21.9414
2023-05-05T11:13:52.540Z,21.9277
2023-05-05T11:14:55.090Z,22.6230
2023-05-05T11:15:57.615Z,23.0897
2023-05-05T11:17:00.163Z,23.4845
2023-05-05T11:18:06.640Z,23.4755
2023-05-05T11:19:04.305Z,23.9778
2023-05-05T11:20:06.983Z,24.4540
2023-05-05T11:21:07.077Z,24.5926
2023-05-05T11:22:09.936Z,24.7192
2023-05-05T11:23:09.788Z,24.1753
2023-05-05T11:24:10.590Z,24.5331
2023-05-05T11:25:13.196Z,25.3417
2023-05-05T11:26:15.668Z,25.8812
2023-05-05T11:27:18.183Z,25.1665
2023-05-05T11:28:18.011Z,25.9586
2023-05-05T11:29:20.474Z,26.0089
2023-05-05T11:30:22.990Z,25.3397
2023-05-05T11:31:25.510Z,25.9714
2023-05-05T11:32:27.969Z,26.1394
2023-05-05T11:33:30.461Z,26.4372
2023-05-05T11:34:32.860Z,26.1968
2023-05-05T11:35:35.321Z,26.1878
2023-05-05T11:36:37.742Z,25.4215
2023-05-05T11:37:40.193Z,25.9837
2023-05-05T11:38:42.643Z,25.9880
2023-05-05T11:39:45.027Z,26.4033
2023-05-05T11:40:47.518Z,26.4941
2023-05-05T11:41:49.954Z,26.4881
2023-05-05T11:42:52.422Z,25.5332
2023-05-05T11:43:54.807Z,23.2711
2023-05-05T11:44:57.250Z,24.0177
2023-05-05T11:45:59.682Z,24.7864
2023-05-05T11:47:02.094Z,25.3698
2023-05-05T11:48:04.583Z,25.5857
2023-05-05T11:49:04.408Z,25.6625
2023-05-05T11:50:04.368Z,26.1836
2023-05-05T11:51:03.977Z,26.7995
2023-05-05T11:52:06.402Z,26.5182
2023-05-05T11:53:08.794Z,26.1662
2023-05-05T11:54:11.335Z,26.1991
2023-05-05T11:55:13.742Z,26.1207
2023-05-05T11:56:16.241Z,25.9346
2023-05-05T11:57:18.626Z,26.0482
2023-05-05T11:58:21.018Z,25.7138
2023-05-05T11:59:20.820Z,25.8484
2023-05-05T12:00:20.740Z,25.3745
2023-05-05T12:01:20.701Z,25.4635
2023-05-05T12:02:20.655Z,24.7115
2023-05-05T12:03:20.685Z,24.5373
2023-05-05T12:04:20.765Z,24.9217
2023-05-05T12:05:20.705Z,24.4359
2023-05-05T12:06:20.699Z,24.4172
2023-05-05T12:07:20.705Z,24.6409
2023-05-05T12:08:20.708Z,24.6409
2023-05-05T12:09:20.701Z,24.3628
2023-05-05T12:10:20.701Z,24.5594
2023-05-05T12:11:20.678Z,24.9008
2023-05-05T12:12:20.689Z,25.2293
2023-05-05T12:13:20.806Z,25.5815
2023-05-05T12:14:20.876Z,25.4487
2023-05-05T12:15:20.837Z,25.3777
2023-05-05T12:16:20.849Z,25.6617
2023-05-05T12:17:20.766Z,25.4096
2023-05-05T12:18:20.766Z,25.7720
2023-05-05T12:19:20.705Z,25.0242
2023-05-05T12:20:20.611Z,24.4882
2023-05-05T12:21:20.564Z,24.9758
2023-05-05T12:22:20.501Z,24.7882
2023-05-05T12:23:20.481Z,24.7030
2023-05-05T12:24:20.412Z,24.8351
2023-05-05T12:25:20.410Z,25.4006
2023-05-05T12:26:20.366Z,25.8048
2023-05-05T12:27:20.295Z,26.1994
2023-05-05T12:28:20.387Z,26.1584
2023-05-05T12:29:20.347Z,25.8390
2023-05-05T12:30:20.315Z,26.1073
2023-05-05T12:31:20.278Z,25.8423
2023-05-05T12:32:20.231Z,25.7701